<?xml version="1.0" encoding="UTF-8" standalone="no" ?>
<gpx xmlns="http://www.topografix.com/GPX/1/1" xmlns:xsi="http://www.w3.org/2001/XMLSchema-instance" xsi:schemaLocation="http://www.topografix.com/GPX/1/1 http://www.topografix.com/GPX/1/1/gpx.xsd" version="1.1" creator="VisuGPX - https://www.visugpx.com">
  <metadata>
    <name>Hameau de Douch - sommet du Caroux</name>
    <desc><![CDATA[2016-11 - Hameau de Douch - observatoire - sommet du Caroux

[b]album[/b] : [url]https://goo.gl/photos/WpbVuKED5i8N6Rti6[/url]
[img]https://3.bp.blogspot.com/-40KuD6Kh77c/WOaADDNi-cI/AAAAAAAAR_k/7-oVqLnRnc0dJfQIstLXczprQjNz4e7FgCLcB/s1600/2016-11_Douch_observatoire-caroux_i.JPG[/img]
[b]Idées de randonnées dans la même région[/b]
Parcours : [url]https://www.visugpx.com/membres/24856/montagne/haut-languedoc/[/url]
Photos : [url]https://jcvertygo.blogspot.com/p/haut-languedoc.html[/url]]]></desc>
  </metadata>
  <trk>
    <name><![CDATA[Hameau de Douch - sommet du Caroux_1]]></name>
    <trkseg>
      <trkpt lat="43.61077" lon="2.97291">
        <ele>913.3</ele>
        <time>2016-11-11T11:36:35Z</time>
      </trkpt>
      <trkpt lat="43.61075" lon="2.97287">
        <ele>913.3</ele>
        <time>2016-11-11T11:36:46Z</time>
      </trkpt>
      <trkpt lat="43.61069" lon="2.97293">
        <ele>911.44816151141</ele>
        <time>2016-11-11T11:37:10Z</time>
      </trkpt>
      <trkpt lat="43.61024" lon="2.97275">
        <ele>910.10229915126</ele>
        <time>2016-11-11T11:39:28Z</time>
      </trkpt>
      <trkpt lat="43.61005" lon="2.9726">
        <ele>913.13711246632</ele>
        <time>2016-11-11T11:40:09Z</time>
      </trkpt>
      <trkpt lat="43.60968" lon="2.97273">
        <ele>918.14903511055</ele>
        <time>2016-11-11T11:41:01Z</time>
      </trkpt>
      <trkpt lat="43.60958" lon="2.97278">
        <ele>923.17589169995</ele>
        <time>2016-11-11T11:41:21Z</time>
      </trkpt>
      <trkpt lat="43.60927" lon="2.97293">
        <ele>928.72808203655</ele>
        <time>2016-11-11T11:43:18Z</time>
      </trkpt>
      <trkpt lat="43.60909" lon="2.97302">
        <ele>934.10615858671</ele>
        <time>2016-11-11T11:43:52Z</time>
      </trkpt>
      <trkpt lat="43.60906" lon="2.97303">
        <ele>934.10615858671</ele>
        <time>2016-11-11T11:44:00Z</time>
      </trkpt>
      <trkpt lat="43.60892" lon="2.97304">
        <ele>939.217847528</ele>
        <time>2016-11-11T11:44:40Z</time>
      </trkpt>
      <trkpt lat="43.60887" lon="2.973">
        <ele>939.217847528</ele>
        <time>2016-11-11T11:45:18Z</time>
      </trkpt>
      <trkpt lat="43.60879" lon="2.97301">
        <ele>944.36540851169</ele>
        <time>2016-11-11T11:46:44Z</time>
      </trkpt>
      <trkpt lat="43.60851" lon="2.97311">
        <ele>949.41668110862</ele>
        <time>2016-11-11T11:48:24Z</time>
      </trkpt>
      <trkpt lat="43.6085" lon="2.97312">
        <ele>949.41668110862</ele>
        <time>2016-11-11T11:48:24Z</time>
      </trkpt>
      <trkpt lat="43.60824" lon="2.97318">
        <ele>954.24216332351</ele>
        <time>2016-11-11T11:49:18Z</time>
      </trkpt>
      <trkpt lat="43.60822" lon="2.97316">
        <ele>954.24216332351</ele>
        <time>2016-11-11T11:49:35Z</time>
      </trkpt>
      <trkpt lat="43.6079" lon="2.97323">
        <ele>958.96496696633</ele>
        <time>2016-11-11T11:51:08Z</time>
      </trkpt>
      <trkpt lat="43.6079" lon="2.97323">
        <ele>958.96496696633</ele>
        <time>2016-11-11T11:51:08Z</time>
      </trkpt>
      <trkpt lat="43.60783" lon="2.9732">
        <ele>958.96496696633</ele>
        <time>2016-11-11T11:51:22Z</time>
      </trkpt>
      <trkpt lat="43.6077" lon="2.97325">
        <ele>963.84650871238</ele>
        <time>2016-11-11T11:52:00Z</time>
      </trkpt>
      <trkpt lat="43.60769" lon="2.97325">
        <ele>963.84650871238</ele>
        <time>2016-11-11T11:52:00Z</time>
      </trkpt>
      <trkpt lat="43.60744" lon="2.97331">
        <ele>968.88053958712</ele>
        <time>2016-11-11T11:53:01Z</time>
      </trkpt>
      <trkpt lat="43.60735" lon="2.97339">
        <ele>973.32865416337</ele>
        <time>2016-11-11T11:53:20Z</time>
      </trkpt>
      <trkpt lat="43.60728" lon="2.97349">
        <ele>977.17393770824</ele>
        <time>2016-11-11T11:53:51Z</time>
      </trkpt>
      <trkpt lat="43.60732" lon="2.97361">
        <ele>982.04056068328</ele>
        <time>2016-11-11T11:55:08Z</time>
      </trkpt>
      <trkpt lat="43.60725" lon="2.97364">
        <ele>982.04056068328</ele>
        <time>2016-11-11T11:55:35Z</time>
      </trkpt>
      <trkpt lat="43.60719" lon="2.97361">
        <ele>986.76904783011</ele>
        <time>2016-11-11T11:55:58Z</time>
      </trkpt>
      <trkpt lat="43.60718" lon="2.97362">
        <ele>986.76904783011</ele>
        <time>2016-11-11T11:55:58Z</time>
      </trkpt>
      <trkpt lat="43.60684" lon="2.97378">
        <ele>991.84875833499</ele>
        <time>2016-11-11T11:58:19Z</time>
      </trkpt>
      <trkpt lat="43.60632" lon="2.97389">
        <ele>997.56110525968</ele>
        <time>2016-11-11T11:59:23Z</time>
      </trkpt>
      <trkpt lat="43.60628" lon="2.9739">
        <ele>997.56110525968</ele>
        <time>2016-11-11T11:59:27Z</time>
      </trkpt>
      <trkpt lat="43.60615" lon="2.97398">
        <ele>1003.1871119301</ele>
        <time>2016-11-11T11:59:55Z</time>
      </trkpt>
      <trkpt lat="43.60611" lon="2.97405">
        <ele>1003.1871119301</ele>
        <time>2016-11-11T11:59:57Z</time>
      </trkpt>
      <trkpt lat="43.60606" lon="2.97406">
        <ele>1008.3885025302</ele>
        <time>2016-11-11T12:00:14Z</time>
      </trkpt>
      <trkpt lat="43.60603" lon="2.97408">
        <ele>1008.3885025302</ele>
        <time>2016-11-11T12:00:14Z</time>
      </trkpt>
      <trkpt lat="43.60595" lon="2.97418">
        <ele>1013.530147722</ele>
        <time>2016-11-11T12:00:39Z</time>
      </trkpt>
      <trkpt lat="43.60595" lon="2.9742">
        <ele>1013.530147722</ele>
        <time>2016-11-11T12:00:47Z</time>
      </trkpt>
      <trkpt lat="43.60589" lon="2.97426">
        <ele>1018.6047724766</ele>
        <time>2016-11-11T12:01:04Z</time>
      </trkpt>
      <trkpt lat="43.60587" lon="2.97427">
        <ele>1018.6047724766</ele>
        <time>2016-11-11T12:01:20Z</time>
      </trkpt>
      <trkpt lat="43.60585" lon="2.9743">
        <ele>1018.6047724766</ele>
        <time>2016-11-11T12:01:38Z</time>
      </trkpt>
      <trkpt lat="43.60584" lon="2.97431">
        <ele>1018.6047724766</ele>
        <time>2016-11-11T12:01:40Z</time>
      </trkpt>
      <trkpt lat="43.60581" lon="2.97431">
        <ele>1023.4445708995</ele>
        <time>2016-11-11T12:01:45Z</time>
      </trkpt>
      <trkpt lat="43.60572" lon="2.97429">
        <ele>1027.7565091896</ele>
        <time>2016-11-11T12:02:08Z</time>
      </trkpt>
      <trkpt lat="43.60542" lon="2.97423">
        <ele>1031.9483504163</ele>
        <time>2016-11-11T12:02:43Z</time>
      </trkpt>
      <trkpt lat="43.60536" lon="2.97423">
        <ele>1031.9483504163</ele>
        <time>2016-11-11T12:03:06Z</time>
      </trkpt>
      <trkpt lat="43.60536" lon="2.97424">
        <ele>1031.9483504163</ele>
        <time>2016-11-11T12:04:08Z</time>
      </trkpt>
      <trkpt lat="43.60533" lon="2.97424">
        <ele>1037.5819784705</ele>
        <time>2016-11-11T12:05:40Z</time>
      </trkpt>
      <trkpt lat="43.60525" lon="2.97418">
        <ele>1037.5819784705</ele>
        <time>2016-11-11T12:06:00Z</time>
      </trkpt>
      <trkpt lat="43.60521" lon="2.97417">
        <ele>1042.4193911492</ele>
        <time>2016-11-11T12:06:01Z</time>
      </trkpt>
      <trkpt lat="43.60498" lon="2.97407">
        <ele>1047.0983029307</ele>
        <time>2016-11-11T12:07:27Z</time>
      </trkpt>
      <trkpt lat="43.60493" lon="2.97408">
        <ele>1047.0983029307</ele>
        <time>2016-11-11T12:07:32Z</time>
      </trkpt>
      <trkpt lat="43.60488" lon="2.97408">
        <ele>1051.1141737764</ele>
        <time>2016-11-11T12:07:57Z</time>
      </trkpt>
      <trkpt lat="43.60478" lon="2.97409">
        <ele>1054.4873958158</ele>
        <time>2016-11-11T12:07:57Z</time>
      </trkpt>
      <trkpt lat="43.60448" lon="2.9741">
        <ele>1057.7065609214</ele>
        <time>2016-11-11T12:08:53Z</time>
      </trkpt>
      <trkpt lat="43.60434" lon="2.97407">
        <ele>1060.4611837134</ele>
        <time>2016-11-11T12:09:06Z</time>
      </trkpt>
      <trkpt lat="43.60434" lon="2.97406">
        <ele>1060.4611837134</ele>
        <time>2016-11-11T12:09:27Z</time>
      </trkpt>
      <trkpt lat="43.60429" lon="2.97404">
        <ele>1060.4611837134</ele>
        <time>2016-11-11T12:11:12Z</time>
      </trkpt>
      <trkpt lat="43.60425" lon="2.97403">
        <ele>1063.5634296832</ele>
        <time>2016-11-11T12:11:12Z</time>
      </trkpt>
      <trkpt lat="43.60424" lon="2.97403">
        <ele>1063.5634296832</ele>
        <time>2016-11-11T12:11:33Z</time>
      </trkpt>
      <trkpt lat="43.60412" lon="2.97397">
        <ele>1066.1245302427</ele>
        <time>2016-11-11T12:11:46Z</time>
      </trkpt>
      <trkpt lat="43.60401" lon="2.97397">
        <ele>1068.1950653156</ele>
        <time>2016-11-11T12:13:06Z</time>
      </trkpt>
      <trkpt lat="43.6038" lon="2.97393">
        <ele>1070.0656333757</ele>
        <time>2016-11-11T12:15:17Z</time>
      </trkpt>
      <trkpt lat="43.60376" lon="2.97392">
        <ele>1070.0656333757</ele>
        <time>2016-11-11T12:15:20Z</time>
      </trkpt>
      <trkpt lat="43.6037" lon="2.97389">
        <ele>1071.3142760356</ele>
        <time>2016-11-11T12:15:30Z</time>
      </trkpt>
      <trkpt lat="43.60354" lon="2.97386">
        <ele>1072.0892105406</ele>
        <time>2016-11-11T12:16:00Z</time>
      </trkpt>
      <trkpt lat="43.60349" lon="2.97387">
        <ele>1072.0892105406</ele>
        <time>2016-11-11T12:16:03Z</time>
      </trkpt>
      <trkpt lat="43.60327" lon="2.97388">
        <ele>1072.3025302457</ele>
        <time>2016-11-11T12:16:38Z</time>
      </trkpt>
      <trkpt lat="43.60327" lon="2.97389">
        <ele>1072.3025302457</ele>
        <time>2016-11-11T12:16:38Z</time>
      </trkpt>
      <trkpt lat="43.60322" lon="2.97391">
        <ele>1072.3025302457</ele>
        <time>2016-11-11T12:16:46Z</time>
      </trkpt>
      <trkpt lat="43.6029" lon="2.97389">
        <ele>1071.6554174693</ele>
        <time>2016-11-11T12:17:20Z</time>
      </trkpt>
      <trkpt lat="43.60285" lon="2.97388">
        <ele>1071.6554174693</ele>
        <time>2016-11-11T12:17:25Z</time>
      </trkpt>
      <trkpt lat="43.60277" lon="2.97389">
        <ele>1070.5582271383</ele>
        <time>2016-11-11T12:17:38Z</time>
      </trkpt>
      <trkpt lat="43.60249" lon="2.97389">
        <ele>1069.0337013456</ele>
        <time>2016-11-11T12:18:10Z</time>
      </trkpt>
      <trkpt lat="43.60238" lon="2.9739">
        <ele>1067.2538570462</ele>
        <time>2016-11-11T12:19:04Z</time>
      </trkpt>
      <trkpt lat="43.60228" lon="2.9739">
        <ele>1065.3073114029</ele>
        <time>2016-11-11T12:19:26Z</time>
      </trkpt>
      <trkpt lat="43.60224" lon="2.9739">
        <ele>1065.3073114029</ele>
        <time>2016-11-11T12:19:26Z</time>
      </trkpt>
      <trkpt lat="43.60218" lon="2.9739">
        <ele>1063.1876500241</ele>
        <time>2016-11-11T12:19:34Z</time>
      </trkpt>
      <trkpt lat="43.60183" lon="2.97398">
        <ele>1061.0086685802</ele>
        <time>2016-11-11T12:20:15Z</time>
      </trkpt>
      <trkpt lat="43.60182" lon="2.97398">
        <ele>1061.0086685802</ele>
        <time>2016-11-11T12:20:15Z</time>
      </trkpt>
      <trkpt lat="43.60165" lon="2.97401">
        <ele>1058.8455761536</ele>
        <time>2016-11-11T12:20:46Z</time>
      </trkpt>
      <trkpt lat="43.60148" lon="2.97406">
        <ele>1056.7517536972</ele>
        <time>2016-11-11T12:21:10Z</time>
      </trkpt>
      <trkpt lat="43.60073" lon="2.97413">
        <ele>1054.533425241</ele>
        <time>2016-11-11T12:23:09Z</time>
      </trkpt>
      <trkpt lat="43.60072" lon="2.97412">
        <ele>1054.533425241</ele>
        <time>2016-11-11T12:23:09Z</time>
      </trkpt>
      <trkpt lat="43.60071" lon="2.97413">
        <ele>1054.533425241</ele>
        <time>2016-11-11T12:23:10Z</time>
      </trkpt>
      <trkpt lat="43.60064" lon="2.97412">
        <ele>1052.3270891793</ele>
        <time>2016-11-11T12:23:23Z</time>
      </trkpt>
      <trkpt lat="43.6006" lon="2.97413">
        <ele>1052.3270891793</ele>
        <time>2016-11-11T12:23:27Z</time>
      </trkpt>
      <trkpt lat="43.60055" lon="2.97416">
        <ele>1052.3270891793</ele>
        <time>2016-11-11T12:23:38Z</time>
      </trkpt>
      <trkpt lat="43.60055" lon="2.97416">
        <ele>1050.1367824101</ele>
        <time>2016-11-11T12:23:39Z</time>
      </trkpt>
      <trkpt lat="43.60046" lon="2.97415">
        <ele>1047.9648064423</ele>
        <time>2016-11-11T12:24:08Z</time>
      </trkpt>
      <trkpt lat="43.60033" lon="2.97419">
        <ele>1045.8571883262</ele>
        <time>2016-11-11T12:24:17Z</time>
      </trkpt>
      <trkpt lat="43.60032" lon="2.9742">
        <ele>1045.8571883262</ele>
        <time>2016-11-11T12:24:26Z</time>
      </trkpt>
      <trkpt lat="43.60019" lon="2.97434">
        <ele>1043.7645616104</ele>
        <time>2016-11-11T12:24:37Z</time>
      </trkpt>
      <trkpt lat="43.60012" lon="2.97442">
        <ele>1043.7645616104</ele>
        <time>2016-11-11T12:25:08Z</time>
      </trkpt>
      <trkpt lat="43.60006" lon="2.97442">
        <ele>1041.7607363051</ele>
        <time>2016-11-11T12:25:08Z</time>
      </trkpt>
      <trkpt lat="43.60003" lon="2.97439">
        <ele>1041.7607363051</ele>
        <time>2016-11-11T12:25:20Z</time>
      </trkpt>
      <trkpt lat="43.6" lon="2.97435">
        <ele>1041.7607363051</ele>
        <time>2016-11-11T12:25:25Z</time>
      </trkpt>
      <trkpt lat="43.59925" lon="2.97443">
        <ele>1039.9722171932</ele>
        <time>2016-11-11T12:27:20Z</time>
      </trkpt>
      <trkpt lat="43.59905" lon="2.97437">
        <ele>1038.483503598</ele>
        <time>2016-11-11T12:27:58Z</time>
      </trkpt>
      <trkpt lat="43.59885" lon="2.97435">
        <ele>1037.1911600859</ele>
        <time>2016-11-11T12:29:08Z</time>
      </trkpt>
      <trkpt lat="43.59881" lon="2.97436">
        <ele>1037.1911600859</ele>
        <time>2016-11-11T12:29:21Z</time>
      </trkpt>
      <trkpt lat="43.59877" lon="2.9744">
        <ele>1035.9396656436</ele>
        <time>2016-11-11T12:30:00Z</time>
      </trkpt>
      <trkpt lat="43.59868" lon="2.97431">
        <ele>1034.0957242315</ele>
        <time>2016-11-11T12:31:02Z</time>
      </trkpt>
      <trkpt lat="43.59864" lon="2.97427">
        <ele>1034.0957242315</ele>
        <time>2016-11-11T12:31:08Z</time>
      </trkpt>
      <trkpt lat="43.59859" lon="2.97425">
        <ele>1032.3699712062</ele>
        <time>2016-11-11T12:31:20Z</time>
      </trkpt>
      <trkpt lat="43.59839" lon="2.97354">
        <ele>1031.368166735</ele>
        <time>2016-11-11T12:33:01Z</time>
      </trkpt>
      <trkpt lat="43.59837" lon="2.97333">
        <ele>1030.4632500528</ele>
        <time>2016-11-11T12:33:19Z</time>
      </trkpt>
      <trkpt lat="43.59837" lon="2.97332">
        <ele>1030.4632500528</ele>
        <time>2016-11-11T12:33:20Z</time>
      </trkpt>
      <trkpt lat="43.59788" lon="2.97286">
        <ele>1029.168257305</ele>
        <time>2016-11-11T12:34:37Z</time>
      </trkpt>
      <trkpt lat="43.59787" lon="2.97287">
        <ele>1029.168257305</ele>
        <time>2016-11-11T12:34:37Z</time>
      </trkpt>
      <trkpt lat="43.59763" lon="2.97274">
        <ele>1027.7565637849</ele>
        <time>2016-11-11T12:35:06Z</time>
      </trkpt>
      <trkpt lat="43.59756" lon="2.97273">
        <ele>1027.7565637849</ele>
        <time>2016-11-11T12:35:19Z</time>
      </trkpt>
      <trkpt lat="43.59755" lon="2.97272">
        <ele>1027.7565637849</ele>
        <time>2016-11-11T12:35:20Z</time>
      </trkpt>
      <trkpt lat="43.59743" lon="2.97269">
        <ele>1026.2445328313</ele>
        <time>2016-11-11T12:36:01Z</time>
      </trkpt>
      <trkpt lat="43.5973" lon="2.97272">
        <ele>1024.5155236514</ele>
        <time>2016-11-11T12:37:10Z</time>
      </trkpt>
      <trkpt lat="43.59726" lon="2.97268">
        <ele>1024.5155236514</ele>
        <time>2016-11-11T12:37:10Z</time>
      </trkpt>
      <trkpt lat="43.59718" lon="2.97262">
        <ele>1022.9148521074</ele>
        <time>2016-11-11T12:37:21Z</time>
      </trkpt>
      <trkpt lat="43.59715" lon="2.97261">
        <ele>1022.9148521074</ele>
        <time>2016-11-11T12:37:25Z</time>
      </trkpt>
      <trkpt lat="43.59674" lon="2.97239">
        <ele>1021.2640862601</ele>
        <time>2016-11-11T12:38:32Z</time>
      </trkpt>
      <trkpt lat="43.59672" lon="2.97237">
        <ele>1021.2640862601</ele>
        <time>2016-11-11T12:38:45Z</time>
      </trkpt>
      <trkpt lat="43.5966" lon="2.97238">
        <ele>1019.6897561279</ele>
        <time>2016-11-11T12:39:09Z</time>
      </trkpt>
      <trkpt lat="43.5965" lon="2.97231">
        <ele>1018.2787947165</ele>
        <time>2016-11-11T12:39:19Z</time>
      </trkpt>
      <trkpt lat="43.59649" lon="2.97231">
        <ele>1018.2787947165</ele>
        <time>2016-11-11T12:39:20Z</time>
      </trkpt>
      <trkpt lat="43.59619" lon="2.9724">
        <ele>1017.009080987</ele>
        <time>2016-11-11T12:40:07Z</time>
      </trkpt>
      <trkpt lat="43.59606" lon="2.97243">
        <ele>1016.0334596186</ele>
        <time>2016-11-11T12:40:19Z</time>
      </trkpt>
      <trkpt lat="43.59603" lon="2.97243">
        <ele>1016.0334596186</ele>
        <time>2016-11-11T12:40:24Z</time>
      </trkpt>
      <trkpt lat="43.59582" lon="2.97251">
        <ele>1015.76692834</ele>
        <time>2016-11-11T12:40:46Z</time>
      </trkpt>
      <trkpt lat="43.59568" lon="2.97254">
        <ele>1015.6361092669</ele>
        <time>2016-11-11T12:41:13Z</time>
      </trkpt>
      <trkpt lat="43.59554" lon="2.97258">
        <ele>1015.660115611</ele>
        <time>2016-11-11T12:41:25Z</time>
      </trkpt>
      <trkpt lat="43.59527" lon="2.97262">
        <ele>1016.1592234533</ele>
        <time>2016-11-11T12:41:57Z</time>
      </trkpt>
      <trkpt lat="43.59503" lon="2.97265">
        <ele>1016.9372211298</ele>
        <time>2016-11-11T12:42:31Z</time>
      </trkpt>
      <trkpt lat="43.59491" lon="2.97266">
        <ele>1017.7972892578</ele>
        <time>2016-11-11T12:42:47Z</time>
      </trkpt>
      <trkpt lat="43.59461" lon="2.97275">
        <ele>1018.9175283987</ele>
        <time>2016-11-11T12:43:24Z</time>
      </trkpt>
      <trkpt lat="43.59461" lon="2.97275">
        <ele>1018.9175283987</ele>
        <time>2016-11-11T12:43:25Z</time>
      </trkpt>
      <trkpt lat="43.59453" lon="2.97279">
        <ele>1020.0868607897</ele>
        <time>2016-11-11T12:43:46Z</time>
      </trkpt>
      <trkpt lat="43.59449" lon="2.9728">
        <ele>1020.0868607897</ele>
        <time>2016-11-11T12:43:46Z</time>
      </trkpt>
      <trkpt lat="43.59434" lon="2.97287">
        <ele>1021.123972421</ele>
        <time>2016-11-11T12:45:19Z</time>
      </trkpt>
      <trkpt lat="43.59434" lon="2.97293">
        <ele>1021.123972421</ele>
        <time>2016-11-11T12:46:08Z</time>
      </trkpt>
      <trkpt lat="43.59433" lon="2.97292">
        <ele>1021.123972421</ele>
        <time>2016-11-11T12:46:10Z</time>
      </trkpt>
      <trkpt lat="43.59433" lon="2.97292">
        <ele>1021.123972421</ele>
        <time>2016-11-11T12:46:15Z</time>
      </trkpt>
      <trkpt lat="43.59438" lon="2.97291">
        <ele>1022.5676470495</ele>
        <time>2016-11-11T12:48:00Z</time>
      </trkpt>
      <trkpt lat="43.59435" lon="2.97306">
        <ele>1024.0072996692</ele>
        <time>2016-11-11T12:48:52Z</time>
      </trkpt>
      <trkpt lat="43.59432" lon="2.97305">
        <ele>1024.0072996692</ele>
        <time>2016-11-11T12:50:54Z</time>
      </trkpt>
      <trkpt lat="43.59435" lon="2.97297">
        <ele>1025.3652678707</ele>
        <time>2016-11-11T12:54:18Z</time>
      </trkpt>
      <trkpt lat="43.59436" lon="2.97267">
        <ele>1026.7571508071</ele>
        <time>2016-11-11T12:55:00Z</time>
      </trkpt>
      <trkpt lat="43.59429" lon="2.97265">
        <ele>1026.7571508071</ele>
        <time>2016-11-11T12:55:20Z</time>
      </trkpt>
      <trkpt lat="43.59425" lon="2.97228">
        <ele>1028.0159453178</ele>
        <time>2016-11-11T12:57:05Z</time>
      </trkpt>
      <trkpt lat="43.59423" lon="2.97232">
        <ele>1028.0159453178</ele>
        <time>2016-11-11T12:57:35Z</time>
      </trkpt>
      <trkpt lat="43.59431" lon="2.973">
        <ele>1029.3188614462</ele>
        <time>2016-11-11T12:58:57Z</time>
      </trkpt>
      <trkpt lat="43.59434" lon="2.97267">
        <ele>1030.4839039495</ele>
        <time>2016-11-11T13:00:00Z</time>
      </trkpt>
      <trkpt lat="43.59426" lon="2.97274">
        <ele>1031.2418727622</ele>
        <time>2016-11-11T13:04:00Z</time>
      </trkpt>
      <trkpt lat="43.5943" lon="2.97279">
        <ele>1031.2418727622</ele>
        <time>2016-11-11T13:05:45Z</time>
      </trkpt>
      <trkpt lat="43.59429" lon="2.97296">
        <ele>1031.9213159284</ele>
        <time>2016-11-11T13:06:09Z</time>
      </trkpt>
      <trkpt lat="43.5943" lon="2.97296">
        <ele>1031.9213159284</ele>
        <time>2016-11-11T13:06:14Z</time>
      </trkpt>
      <trkpt lat="43.59438" lon="2.97274">
        <ele>1032.5962085388</ele>
        <time>2016-11-11T13:07:02Z</time>
      </trkpt>
      <trkpt lat="43.59438" lon="2.97274">
        <ele>1032.5962085388</ele>
        <time>2016-11-11T13:07:24Z</time>
      </trkpt>
      <trkpt lat="43.59422" lon="2.97286">
        <ele>1033.291901145</ele>
        <time>2016-11-11T13:08:40Z</time>
      </trkpt>
      <trkpt lat="43.59425" lon="2.97283">
        <ele>1033.291901145</ele>
        <time>2016-11-11T13:08:40Z</time>
      </trkpt>
      <trkpt lat="43.59426" lon="2.97288">
        <ele>1033.291901145</ele>
        <time>2016-11-11T13:09:06Z</time>
      </trkpt>
      <trkpt lat="43.5943" lon="2.97295">
        <ele>1034.1184291841</ele>
        <time>2016-11-11T13:09:10Z</time>
      </trkpt>
      <trkpt lat="43.59431" lon="2.97302">
        <ele>1034.1184291841</ele>
        <time>2016-11-11T13:09:17Z</time>
      </trkpt>
      <trkpt lat="43.59432" lon="2.97306">
        <ele>1034.1184291841</ele>
        <time>2016-11-11T13:09:20Z</time>
      </trkpt>
      <trkpt lat="43.59432" lon="2.97351">
        <ele>1034.759166355</ele>
        <time>2016-11-11T13:10:02Z</time>
      </trkpt>
      <trkpt lat="43.59417" lon="2.97368">
        <ele>1035.4261779876</ele>
        <time>2016-11-11T13:10:22Z</time>
      </trkpt>
      <trkpt lat="43.59415" lon="2.97369">
        <ele>1035.4261779876</ele>
        <time>2016-11-11T13:10:25Z</time>
      </trkpt>
      <trkpt lat="43.59409" lon="2.97377">
        <ele>1036.0563293307</ele>
        <time>2016-11-11T13:10:35Z</time>
      </trkpt>
      <trkpt lat="43.59404" lon="2.97381">
        <ele>1036.0563293307</ele>
        <time>2016-11-11T13:10:40Z</time>
      </trkpt>
      <trkpt lat="43.59395" lon="2.97393">
        <ele>1036.6201669471</ele>
        <time>2016-11-11T13:10:55Z</time>
      </trkpt>
      <trkpt lat="43.59393" lon="2.97395">
        <ele>1036.6201669471</ele>
        <time>2016-11-11T13:11:00Z</time>
      </trkpt>
      <trkpt lat="43.59386" lon="2.974">
        <ele>1037.2060784722</ele>
        <time>2016-11-11T13:11:10Z</time>
      </trkpt>
      <trkpt lat="43.59369" lon="2.97404">
        <ele>1037.679621683</ele>
        <time>2016-11-11T13:11:25Z</time>
      </trkpt>
      <trkpt lat="43.59353" lon="2.97427">
        <ele>1038.161865451</ele>
        <time>2016-11-11T13:11:55Z</time>
      </trkpt>
      <trkpt lat="43.59351" lon="2.97429">
        <ele>1038.161865451</ele>
        <time>2016-11-11T13:11:55Z</time>
      </trkpt>
      <trkpt lat="43.59344" lon="2.97436">
        <ele>1038.5631128306</ele>
        <time>2016-11-11T13:12:02Z</time>
      </trkpt>
      <trkpt lat="43.59293" lon="2.97465">
        <ele>1039.1755923728</ele>
        <time>2016-11-11T13:13:08Z</time>
      </trkpt>
      <trkpt lat="43.59275" lon="2.97483">
        <ele>1039.6781965965</ele>
        <time>2016-11-11T13:13:22Z</time>
      </trkpt>
      <trkpt lat="43.59261" lon="2.97492">
        <ele>1040.1344171421</ele>
        <time>2016-11-11T13:13:42Z</time>
      </trkpt>
      <trkpt lat="43.5925" lon="2.97496">
        <ele>1040.5600318481</ele>
        <time>2016-11-11T13:14:08Z</time>
      </trkpt>
      <trkpt lat="43.59242" lon="2.97503">
        <ele>1040.9409958799</ele>
        <time>2016-11-11T13:14:08Z</time>
      </trkpt>
      <trkpt lat="43.59234" lon="2.97509">
        <ele>1041.3221953014</ele>
        <time>2016-11-11T13:14:16Z</time>
      </trkpt>
      <trkpt lat="43.59227" lon="2.9751">
        <ele>1041.3221953014</ele>
        <time>2016-11-11T13:14:41Z</time>
      </trkpt>
      <trkpt lat="43.59222" lon="2.97508">
        <ele>1041.5001786789</ele>
        <time>2016-11-11T13:14:41Z</time>
      </trkpt>
      <trkpt lat="43.5922" lon="2.97506">
        <ele>1041.5001786789</ele>
        <time>2016-11-11T13:14:58Z</time>
      </trkpt>
      <trkpt lat="43.59195" lon="2.97538">
        <ele>1041.6187563897</ele>
        <time>2016-11-11T13:17:01Z</time>
      </trkpt>
      <trkpt lat="43.59191" lon="2.97555">
        <ele>1041.4942118278</ele>
        <time>2016-11-11T13:17:20Z</time>
      </trkpt>
      <trkpt lat="43.59191" lon="2.9756">
        <ele>1041.4942118278</ele>
        <time>2016-11-11T13:17:28Z</time>
      </trkpt>
      <trkpt lat="43.59191" lon="2.9757">
        <ele>1041.3752029851</ele>
        <time>2016-11-11T13:17:58Z</time>
      </trkpt>
      <trkpt lat="43.5919" lon="2.97582">
        <ele>1041.3752029851</ele>
        <time>2016-11-11T13:19:20Z</time>
      </trkpt>
      <trkpt lat="43.59186" lon="2.97585">
        <ele>1041.2470585316</ele>
        <time>2016-11-11T13:19:48Z</time>
      </trkpt>
      <trkpt lat="43.59164" lon="2.97641">
        <ele>1041.0962803166</ele>
        <time>2016-11-11T13:20:46Z</time>
      </trkpt>
      <trkpt lat="43.59162" lon="2.97645">
        <ele>1041.0962803166</ele>
        <time>2016-11-11T13:20:46Z</time>
      </trkpt>
      <trkpt lat="43.59153" lon="2.97654">
        <ele>1040.9537330524</ele>
        <time>2016-11-11T13:21:05Z</time>
      </trkpt>
      <trkpt lat="43.59147" lon="2.9766">
        <ele>1040.9537330524</ele>
        <time>2016-11-11T13:21:07Z</time>
      </trkpt>
      <trkpt lat="43.59141" lon="2.97676">
        <ele>1040.8480421798</ele>
        <time>2016-11-11T13:21:20Z</time>
      </trkpt>
      <trkpt lat="43.59138" lon="2.9768">
        <ele>1040.8480421798</ele>
        <time>2016-11-11T13:21:30Z</time>
      </trkpt>
      <trkpt lat="43.59131" lon="2.97686">
        <ele>1040.6182948956</ele>
        <time>2016-11-11T13:21:43Z</time>
      </trkpt>
      <trkpt lat="43.59116" lon="2.97717">
        <ele>1040.2743578405</ele>
        <time>2016-11-11T13:22:00Z</time>
      </trkpt>
      <trkpt lat="43.59114" lon="2.97731">
        <ele>1039.8977942794</ele>
        <time>2016-11-11T13:22:09Z</time>
      </trkpt>
      <trkpt lat="43.59115" lon="2.9776">
        <ele>1039.5642920747</ele>
        <time>2016-11-11T13:22:37Z</time>
      </trkpt>
      <trkpt lat="43.59113" lon="2.97769">
        <ele>1039.5642920747</ele>
        <time>2016-11-11T13:22:37Z</time>
      </trkpt>
      <trkpt lat="43.59108" lon="2.97781">
        <ele>1039.113282883</ele>
        <time>2016-11-11T13:22:46Z</time>
      </trkpt>
      <trkpt lat="43.59092" lon="2.97831">
        <ele>1038.5693005616</ele>
        <time>2016-11-11T13:23:43Z</time>
      </trkpt>
      <trkpt lat="43.59086" lon="2.97848">
        <ele>1037.9121145882</ele>
        <time>2016-11-11T13:24:04Z</time>
      </trkpt>
      <trkpt lat="43.59085" lon="2.9785">
        <ele>1037.9121145882</ele>
        <time>2016-11-11T13:24:04Z</time>
      </trkpt>
      <trkpt lat="43.59085" lon="2.97851">
        <ele>1037.9121145882</ele>
        <time>2016-11-11T13:24:05Z</time>
      </trkpt>
      <trkpt lat="43.59085" lon="2.97867">
        <ele>1037.1953653582</ele>
        <time>2016-11-11T13:24:18Z</time>
      </trkpt>
      <trkpt lat="43.59084" lon="2.97871">
        <ele>1037.1953653582</ele>
        <time>2016-11-11T13:24:21Z</time>
      </trkpt>
      <trkpt lat="43.59081" lon="2.97884">
        <ele>1036.4112730728</ele>
        <time>2016-11-11T13:24:34Z</time>
      </trkpt>
      <trkpt lat="43.5907" lon="2.97902">
        <ele>1035.5384019655</ele>
        <time>2016-11-11T13:24:59Z</time>
      </trkpt>
      <trkpt lat="43.59067" lon="2.97908">
        <ele>1035.5384019655</ele>
        <time>2016-11-11T13:24:59Z</time>
      </trkpt>
      <trkpt lat="43.59053" lon="2.97913">
        <ele>1034.5427167221</ele>
        <time>2016-11-11T13:25:25Z</time>
      </trkpt>
      <trkpt lat="43.59039" lon="2.9791">
        <ele>1033.4506527398</ele>
        <time>2016-11-11T13:26:08Z</time>
      </trkpt>
      <trkpt lat="43.59037" lon="2.97906">
        <ele>1033.4506527398</ele>
        <time>2016-11-11T13:28:22Z</time>
      </trkpt>
      <trkpt lat="43.59039" lon="2.97906">
        <ele>1033.4506527398</ele>
        <time>2016-11-11T13:28:22Z</time>
      </trkpt>
      <trkpt lat="43.59039" lon="2.97919">
        <ele>1032.0563655556</ele>
        <time>2016-11-11T13:35:20Z</time>
      </trkpt>
      <trkpt lat="43.59041" lon="2.97914">
        <ele>1032.0563655556</ele>
        <time>2016-11-11T13:39:17Z</time>
      </trkpt>
      <trkpt lat="43.59047" lon="2.97924">
        <ele>1030.6887503364</ele>
        <time>2016-11-11T13:39:42Z</time>
      </trkpt>
      <trkpt lat="43.59052" lon="2.97932">
        <ele>1030.6887503364</ele>
        <time>2016-11-11T13:40:00Z</time>
      </trkpt>
      <trkpt lat="43.59056" lon="2.97925">
        <ele>1029.5227208651</ele>
        <time>2016-11-11T13:40:25Z</time>
      </trkpt>
      <trkpt lat="43.5906" lon="2.9792">
        <ele>1029.5227208651</ele>
        <time>2016-11-11T13:40:25Z</time>
      </trkpt>
      <trkpt lat="43.59076" lon="2.97899">
        <ele>1028.2441540521</ele>
        <time>2016-11-11T13:40:58Z</time>
      </trkpt>
      <trkpt lat="43.59085" lon="2.97892">
        <ele>1027.109887755</ele>
        <time>2016-11-11T13:41:22Z</time>
      </trkpt>
      <trkpt lat="43.59089" lon="2.97896">
        <ele>1027.109887755</ele>
        <time>2016-11-11T13:41:32Z</time>
      </trkpt>
      <trkpt lat="43.59092" lon="2.97902">
        <ele>1026.1700781852</ele>
        <time>2016-11-11T13:41:58Z</time>
      </trkpt>
      <trkpt lat="43.59092" lon="2.97901">
        <ele>1026.1700781852</ele>
        <time>2016-11-11T13:42:00Z</time>
      </trkpt>
      <trkpt lat="43.59095" lon="2.97906">
        <ele>1026.1700781852</ele>
        <time>2016-11-11T13:42:33Z</time>
      </trkpt>
      <trkpt lat="43.59101" lon="2.97904">
        <ele>1025.7299885429</ele>
        <time>2016-11-11T13:42:56Z</time>
      </trkpt>
      <trkpt lat="43.59104" lon="2.97906">
        <ele>1025.7299885429</ele>
        <time>2016-11-11T13:42:56Z</time>
      </trkpt>
      <trkpt lat="43.59114" lon="2.979">
        <ele>1025.3792437968</ele>
        <time>2016-11-11T13:43:25Z</time>
      </trkpt>
      <trkpt lat="43.59147" lon="2.97888">
        <ele>1025.2561034661</ele>
        <time>2016-11-11T13:44:38Z</time>
      </trkpt>
      <trkpt lat="43.5915" lon="2.97886">
        <ele>1025.2561034661</ele>
        <time>2016-11-11T13:44:38Z</time>
      </trkpt>
      <trkpt lat="43.59155" lon="2.97884">
        <ele>1025.2573851751</ele>
        <time>2016-11-11T13:44:55Z</time>
      </trkpt>
      <trkpt lat="43.59162" lon="2.97884">
        <ele>1025.2573851751</ele>
        <time>2016-11-11T13:44:55Z</time>
      </trkpt>
      <trkpt lat="43.59174" lon="2.97886">
        <ele>1025.5320705791</ele>
        <time>2016-11-11T13:45:14Z</time>
      </trkpt>
      <trkpt lat="43.59175" lon="2.97886">
        <ele>1025.5320705791</ele>
        <time>2016-11-11T13:45:20Z</time>
      </trkpt>
      <trkpt lat="43.59178" lon="2.97885">
        <ele>1025.5320705791</ele>
        <time>2016-11-11T13:45:20Z</time>
      </trkpt>
      <trkpt lat="43.59182" lon="2.97884">
        <ele>1025.5320705791</ele>
        <time>2016-11-11T13:45:30Z</time>
      </trkpt>
      <trkpt lat="43.59232" lon="2.97867">
        <ele>1026.9235388162</ele>
        <time>2016-11-11T13:46:36Z</time>
      </trkpt>
      <trkpt lat="43.59245" lon="2.97867">
        <ele>1028.711250224</ele>
        <time>2016-11-11T13:47:01Z</time>
      </trkpt>
      <trkpt lat="43.59253" lon="2.97868">
        <ele>1028.711250224</ele>
        <time>2016-11-11T13:47:08Z</time>
      </trkpt>
      <trkpt lat="43.59262" lon="2.97855">
        <ele>1030.716444127</ele>
        <time>2016-11-11T13:47:20Z</time>
      </trkpt>
      <trkpt lat="43.59288" lon="2.97853">
        <ele>1032.9746311691</ele>
        <time>2016-11-11T13:47:58Z</time>
      </trkpt>
      <trkpt lat="43.59322" lon="2.97844">
        <ele>1035.8638886728</ele>
        <time>2016-11-11T13:48:50Z</time>
      </trkpt>
      <trkpt lat="43.59342" lon="2.97838">
        <ele>1039.0122060852</ele>
        <time>2016-11-11T13:49:19Z</time>
      </trkpt>
      <trkpt lat="43.59348" lon="2.97836">
        <ele>1039.0122060852</ele>
        <time>2016-11-11T13:49:19Z</time>
      </trkpt>
      <trkpt lat="43.59348" lon="2.97836">
        <ele>1039.0122060852</ele>
        <time>2016-11-11T13:49:20Z</time>
      </trkpt>
      <trkpt lat="43.59351" lon="2.97835">
        <ele>1039.0122060852</ele>
        <time>2016-11-11T13:49:27Z</time>
      </trkpt>
      <trkpt lat="43.59359" lon="2.97838">
        <ele>1042.3912801111</ele>
        <time>2016-11-11T13:49:35Z</time>
      </trkpt>
      <trkpt lat="43.59366" lon="2.97836">
        <ele>1042.3912801111</ele>
        <time>2016-11-11T13:49:40Z</time>
      </trkpt>
      <trkpt lat="43.59376" lon="2.97834">
        <ele>1045.7149089622</ele>
        <time>2016-11-11T13:50:00Z</time>
      </trkpt>
      <trkpt lat="43.59383" lon="2.9783">
        <ele>1045.7149089622</ele>
        <time>2016-11-11T13:50:00Z</time>
      </trkpt>
      <trkpt lat="43.59402" lon="2.97824">
        <ele>1049.3810986633</ele>
        <time>2016-11-11T13:50:32Z</time>
      </trkpt>
      <trkpt lat="43.59404" lon="2.97824">
        <ele>1049.3810986633</ele>
        <time>2016-11-11T13:50:32Z</time>
      </trkpt>
      <trkpt lat="43.59405" lon="2.97824">
        <ele>1049.3810986633</ele>
        <time>2016-11-11T13:50:33Z</time>
      </trkpt>
      <trkpt lat="43.59418" lon="2.97821">
        <ele>1052.7489750278</ele>
        <time>2016-11-11T13:51:00Z</time>
      </trkpt>
      <trkpt lat="43.59423" lon="2.97817">
        <ele>1052.7489750278</ele>
        <time>2016-11-11T13:51:05Z</time>
      </trkpt>
      <trkpt lat="43.59425" lon="2.97817">
        <ele>1052.7489750278</ele>
        <time>2016-11-11T13:51:10Z</time>
      </trkpt>
      <trkpt lat="43.59429" lon="2.97815">
        <ele>1055.6292433512</ele>
        <time>2016-11-11T13:51:15Z</time>
      </trkpt>
      <trkpt lat="43.59432" lon="2.97814">
        <ele>1055.6292433512</ele>
        <time>2016-11-11T13:51:25Z</time>
      </trkpt>
      <trkpt lat="43.59435" lon="2.97809">
        <ele>1055.6292433512</ele>
        <time>2016-11-11T13:51:34Z</time>
      </trkpt>
      <trkpt lat="43.59451" lon="2.978">
        <ele>1057.5886342616</ele>
        <time>2016-11-11T13:51:57Z</time>
      </trkpt>
      <trkpt lat="43.59456" lon="2.97797">
        <ele>1057.5886342616</ele>
        <time>2016-11-11T13:52:14Z</time>
      </trkpt>
      <trkpt lat="43.59505" lon="2.97776">
        <ele>1058.7616802015</ele>
        <time>2016-11-11T13:53:12Z</time>
      </trkpt>
      <trkpt lat="43.59508" lon="2.97773">
        <ele>1058.7616802015</ele>
        <time>2016-11-11T13:53:13Z</time>
      </trkpt>
      <trkpt lat="43.59514" lon="2.9777">
        <ele>1059.7221591807</ele>
        <time>2016-11-11T13:53:20Z</time>
      </trkpt>
      <trkpt lat="43.59518" lon="2.97767">
        <ele>1059.7221591807</ele>
        <time>2016-11-11T13:53:25Z</time>
      </trkpt>
      <trkpt lat="43.59543" lon="2.97752">
        <ele>1060.512474824</ele>
        <time>2016-11-11T13:54:02Z</time>
      </trkpt>
      <trkpt lat="43.59553" lon="2.97745">
        <ele>1061.2302010682</ele>
        <time>2016-11-11T13:54:17Z</time>
      </trkpt>
      <trkpt lat="43.59591" lon="2.97731">
        <ele>1062.1678612495</ele>
        <time>2016-11-11T13:55:13Z</time>
      </trkpt>
      <trkpt lat="43.59601" lon="2.97738">
        <ele>1063.0339785896</ele>
        <time>2016-11-11T13:55:20Z</time>
      </trkpt>
      <trkpt lat="43.59604" lon="2.97742">
        <ele>1063.0339785896</ele>
        <time>2016-11-11T13:55:26Z</time>
      </trkpt>
      <trkpt lat="43.59613" lon="2.97747">
        <ele>1063.8614675277</ele>
        <time>2016-11-11T13:55:45Z</time>
      </trkpt>
      <trkpt lat="43.59614" lon="2.97746">
        <ele>1063.8614675277</ele>
        <time>2016-11-11T13:55:50Z</time>
      </trkpt>
      <trkpt lat="43.59621" lon="2.97752">
        <ele>1064.364017365</ele>
        <time>2016-11-11T13:56:56Z</time>
      </trkpt>
      <trkpt lat="43.59631" lon="2.9776">
        <ele>1064.6809013482</ele>
        <time>2016-11-11T13:57:20Z</time>
      </trkpt>
      <trkpt lat="43.59633" lon="2.97764">
        <ele>1064.6809013482</ele>
        <time>2016-11-11T13:57:25Z</time>
      </trkpt>
      <trkpt lat="43.59635" lon="2.97766">
        <ele>1064.6809013482</ele>
        <time>2016-11-11T13:57:38Z</time>
      </trkpt>
      <trkpt lat="43.5964" lon="2.9777">
        <ele>1064.941796502</ele>
        <time>2016-11-11T13:57:45Z</time>
      </trkpt>
      <trkpt lat="43.59644" lon="2.97773">
        <ele>1064.941796502</ele>
        <time>2016-11-11T13:58:00Z</time>
      </trkpt>
      <trkpt lat="43.59644" lon="2.97773">
        <ele>1064.941796502</ele>
        <time>2016-11-11T13:58:00Z</time>
      </trkpt>
      <trkpt lat="43.59661" lon="2.97797">
        <ele>1065.1806475003</ele>
        <time>2016-11-11T13:59:05Z</time>
      </trkpt>
      <trkpt lat="43.59671" lon="2.97806">
        <ele>1065.3714161053</ele>
        <time>2016-11-11T13:59:20Z</time>
      </trkpt>
      <trkpt lat="43.59695" lon="2.9782">
        <ele>1065.6919516978</ele>
        <time>2016-11-11T13:59:55Z</time>
      </trkpt>
      <trkpt lat="43.59714" lon="2.97835">
        <ele>1066.191458639</ele>
        <time>2016-11-11T14:00:30Z</time>
      </trkpt>
      <trkpt lat="43.59728" lon="2.97835">
        <ele>1066.6700997482</ele>
        <time>2016-11-11T14:00:52Z</time>
      </trkpt>
      <trkpt lat="43.59736" lon="2.97836">
        <ele>1066.6700997482</ele>
        <time>2016-11-11T14:00:54Z</time>
      </trkpt>
      <trkpt lat="43.59759" lon="2.97839">
        <ele>1067.4039913604</ele>
        <time>2016-11-11T14:01:20Z</time>
      </trkpt>
      <trkpt lat="43.59763" lon="2.97835">
        <ele>1067.4039913604</ele>
        <time>2016-11-11T14:01:25Z</time>
      </trkpt>
      <trkpt lat="43.59768" lon="2.97836">
        <ele>1068.2736117356</ele>
        <time>2016-11-11T14:01:45Z</time>
      </trkpt>
      <trkpt lat="43.59776" lon="2.97836">
        <ele>1068.2736117356</ele>
        <time>2016-11-11T14:01:45Z</time>
      </trkpt>
      <trkpt lat="43.59784" lon="2.97838">
        <ele>1069.3696420493</ele>
        <time>2016-11-11T14:01:55Z</time>
      </trkpt>
      <trkpt lat="43.59796" lon="2.97839">
        <ele>1069.896431005</ele>
        <time>2016-11-11T14:02:12Z</time>
      </trkpt>
      <trkpt lat="43.59822" lon="2.97855">
        <ele>1069.1472331322</ele>
        <time>2016-11-11T14:02:42Z</time>
      </trkpt>
      <trkpt lat="43.59844" lon="2.97886">
        <ele>1066.7302274187</ele>
        <time>2016-11-11T14:03:21Z</time>
      </trkpt>
      <trkpt lat="43.59847" lon="2.97893">
        <ele>1066.7302274187</ele>
        <time>2016-11-11T14:03:30Z</time>
      </trkpt>
      <trkpt lat="43.59855" lon="2.9791">
        <ele>1063.8434666565</ele>
        <time>2016-11-11T14:03:55Z</time>
      </trkpt>
      <trkpt lat="43.59858" lon="2.97917">
        <ele>1063.8434666565</ele>
        <time>2016-11-11T14:03:55Z</time>
      </trkpt>
      <trkpt lat="43.59863" lon="2.97925">
        <ele>1060.7336327145</ele>
        <time>2016-11-11T14:04:12Z</time>
      </trkpt>
      <trkpt lat="43.5987" lon="2.97936">
        <ele>1057.6298724098</ele>
        <time>2016-11-11T14:04:29Z</time>
      </trkpt>
      <trkpt lat="43.59883" lon="2.97957">
        <ele>1054.5570694908</ele>
        <time>2016-11-11T14:04:37Z</time>
      </trkpt>
      <trkpt lat="43.5989" lon="2.97969">
        <ele>1051.4660414411</ele>
        <time>2016-11-11T14:05:00Z</time>
      </trkpt>
      <trkpt lat="43.59902" lon="2.97998">
        <ele>1048.2102704418</ele>
        <time>2016-11-11T14:05:25Z</time>
      </trkpt>
      <trkpt lat="43.59916" lon="2.98009">
        <ele>1045.1731196437</ele>
        <time>2016-11-11T14:05:47Z</time>
      </trkpt>
      <trkpt lat="43.59932" lon="2.98025">
        <ele>1042.4640232064</ele>
        <time>2016-11-11T14:06:01Z</time>
      </trkpt>
      <trkpt lat="43.59963" lon="2.9807">
        <ele>1040.1976851127</ele>
        <time>2016-11-11T14:07:08Z</time>
      </trkpt>
      <trkpt lat="43.59967" lon="2.98071">
        <ele>1040.1976851127</ele>
        <time>2016-11-11T14:07:08Z</time>
      </trkpt>
      <trkpt lat="43.59978" lon="2.98086">
        <ele>1038.378068369</ele>
        <time>2016-11-11T14:07:26Z</time>
      </trkpt>
      <trkpt lat="43.59989" lon="2.98095">
        <ele>1036.8632771048</ele>
        <time>2016-11-11T14:07:46Z</time>
      </trkpt>
      <trkpt lat="43.60024" lon="2.98151">
        <ele>1035.9098774154</ele>
        <time>2016-11-11T14:08:46Z</time>
      </trkpt>
      <trkpt lat="43.60046" lon="2.98178">
        <ele>1035.278240288</ele>
        <time>2016-11-11T14:09:21Z</time>
      </trkpt>
      <trkpt lat="43.60048" lon="2.98181">
        <ele>1035.278240288</ele>
        <time>2016-11-11T14:09:25Z</time>
      </trkpt>
      <trkpt lat="43.60063" lon="2.98205">
        <ele>1034.8028800625</ele>
        <time>2016-11-11T14:09:59Z</time>
      </trkpt>
      <trkpt lat="43.60068" lon="2.98212">
        <ele>1034.8028800625</ele>
        <time>2016-11-11T14:09:59Z</time>
      </trkpt>
      <trkpt lat="43.60098" lon="2.98262">
        <ele>1034.2433679139</ele>
        <time>2016-11-11T14:11:00Z</time>
      </trkpt>
      <trkpt lat="43.60114" lon="2.98278">
        <ele>1033.3769865104</ele>
        <time>2016-11-11T14:11:27Z</time>
      </trkpt>
      <trkpt lat="43.60135" lon="2.98298">
        <ele>1032.3583398808</ele>
        <time>2016-11-11T14:12:11Z</time>
      </trkpt>
      <trkpt lat="43.60136" lon="2.98299">
        <ele>1032.3583398808</ele>
        <time>2016-11-11T14:12:11Z</time>
      </trkpt>
      <trkpt lat="43.60153" lon="2.98326">
        <ele>1031.3309308678</ele>
        <time>2016-11-11T14:13:21Z</time>
      </trkpt>
      <trkpt lat="43.60154" lon="2.98327">
        <ele>1031.3309308678</ele>
        <time>2016-11-11T14:13:21Z</time>
      </trkpt>
      <trkpt lat="43.60158" lon="2.98332">
        <ele>1031.3309308678</ele>
        <time>2016-11-11T14:13:32Z</time>
      </trkpt>
      <trkpt lat="43.60158" lon="2.98339">
        <ele>1030.4419914411</ele>
        <time>2016-11-11T14:14:00Z</time>
      </trkpt>
      <trkpt lat="43.60168" lon="2.98359">
        <ele>1029.5679900891</ele>
        <time>2016-11-11T14:14:18Z</time>
      </trkpt>
      <trkpt lat="43.6017" lon="2.98365">
        <ele>1029.5679900891</ele>
        <time>2016-11-11T14:14:18Z</time>
      </trkpt>
      <trkpt lat="43.60177" lon="2.9839">
        <ele>1028.7960306147</ele>
        <time>2016-11-11T14:14:50Z</time>
      </trkpt>
      <trkpt lat="43.6019" lon="2.98408">
        <ele>1028.0766853143</ele>
        <time>2016-11-11T14:15:15Z</time>
      </trkpt>
      <trkpt lat="43.60191" lon="2.9841">
        <ele>1028.0766853143</ele>
        <time>2016-11-11T14:15:21Z</time>
      </trkpt>
      <trkpt lat="43.60199" lon="2.98418">
        <ele>1027.4935707104</ele>
        <time>2016-11-11T14:15:38Z</time>
      </trkpt>
      <trkpt lat="43.60206" lon="2.98423">
        <ele>1027.4935707104</ele>
        <time>2016-11-11T14:15:38Z</time>
      </trkpt>
      <trkpt lat="43.60216" lon="2.98432">
        <ele>1027.0804140553</ele>
        <time>2016-11-11T14:15:50Z</time>
      </trkpt>
      <trkpt lat="43.60223" lon="2.98457">
        <ele>1026.8246323232</ele>
        <time>2016-11-11T14:16:20Z</time>
      </trkpt>
      <trkpt lat="43.60225" lon="2.98462">
        <ele>1026.8246323232</ele>
        <time>2016-11-11T14:16:20Z</time>
      </trkpt>
      <trkpt lat="43.60225" lon="2.9849">
        <ele>1026.7572458884</ele>
        <time>2016-11-11T14:16:41Z</time>
      </trkpt>
      <trkpt lat="43.60231" lon="2.98537">
        <ele>1026.8631323733</ele>
        <time>2016-11-11T14:17:17Z</time>
      </trkpt>
      <trkpt lat="43.60233" lon="2.98541">
        <ele>1026.8631323733</ele>
        <time>2016-11-11T14:17:21Z</time>
      </trkpt>
      <trkpt lat="43.60233" lon="2.98546">
        <ele>1026.8631323733</ele>
        <time>2016-11-11T14:17:25Z</time>
      </trkpt>
      <trkpt lat="43.60229" lon="2.98594">
        <ele>1027.1565260026</ele>
        <time>2016-11-11T14:18:05Z</time>
      </trkpt>
      <trkpt lat="43.60231" lon="2.98602">
        <ele>1027.1565260026</ele>
        <time>2016-11-11T14:19:14Z</time>
      </trkpt>
      <trkpt lat="43.60233" lon="2.98597">
        <ele>1027.6211892192</ele>
        <time>2016-11-11T14:19:47Z</time>
      </trkpt>
      <trkpt lat="43.60234" lon="2.98595">
        <ele>1027.6211892192</ele>
        <time>2016-11-11T14:19:47Z</time>
      </trkpt>
      <trkpt lat="43.60245" lon="2.98566">
        <ele>1028.1406542213</ele>
        <time>2016-11-11T14:20:41Z</time>
      </trkpt>
      <trkpt lat="43.60248" lon="2.9855">
        <ele>1028.6500371455</ele>
        <time>2016-11-11T14:20:57Z</time>
      </trkpt>
      <trkpt lat="43.60255" lon="2.98524">
        <ele>1029.2333219214</ele>
        <time>2016-11-11T14:21:15Z</time>
      </trkpt>
      <trkpt lat="43.60258" lon="2.98513">
        <ele>1029.7951570509</ele>
        <time>2016-11-11T14:21:32Z</time>
      </trkpt>
      <trkpt lat="43.60273" lon="2.98489">
        <ele>1030.5210541022</ele>
        <time>2016-11-11T14:22:28Z</time>
      </trkpt>
      <trkpt lat="43.60315" lon="2.98451">
        <ele>1031.6689031618</ele>
        <time>2016-11-11T14:23:22Z</time>
      </trkpt>
      <trkpt lat="43.60316" lon="2.9845">
        <ele>1031.6689031618</ele>
        <time>2016-11-11T14:23:23Z</time>
      </trkpt>
      <trkpt lat="43.60318" lon="2.98448">
        <ele>1031.6689031618</ele>
        <time>2016-11-11T14:23:27Z</time>
      </trkpt>
      <trkpt lat="43.60326" lon="2.9843">
        <ele>1032.8568002193</ele>
        <time>2016-11-11T14:23:51Z</time>
      </trkpt>
      <trkpt lat="43.60341" lon="2.98417">
        <ele>1034.0190307731</ele>
        <time>2016-11-11T14:24:06Z</time>
      </trkpt>
      <trkpt lat="43.60356" lon="2.98407">
        <ele>1035.1668730593</ele>
        <time>2016-11-11T14:24:18Z</time>
      </trkpt>
      <trkpt lat="43.6036" lon="2.98405">
        <ele>1035.1668730593</ele>
        <time>2016-11-11T14:24:23Z</time>
      </trkpt>
      <trkpt lat="43.60379" lon="2.98397">
        <ele>1036.4405675458</ele>
        <time>2016-11-11T14:24:48Z</time>
      </trkpt>
      <trkpt lat="43.60391" lon="2.98389">
        <ele>1037.7824170836</ele>
        <time>2016-11-11T14:25:08Z</time>
      </trkpt>
      <trkpt lat="43.60397" lon="2.98387">
        <ele>1037.7824170836</ele>
        <time>2016-11-11T14:25:08Z</time>
      </trkpt>
      <trkpt lat="43.6041" lon="2.98376">
        <ele>1039.2397225965</ele>
        <time>2016-11-11T14:25:23Z</time>
      </trkpt>
      <trkpt lat="43.60411" lon="2.98374">
        <ele>1039.2397225965</ele>
        <time>2016-11-11T14:25:25Z</time>
      </trkpt>
      <trkpt lat="43.60423" lon="2.9836">
        <ele>1040.7551922747</ele>
        <time>2016-11-11T14:25:47Z</time>
      </trkpt>
      <trkpt lat="43.60429" lon="2.98354">
        <ele>1040.7551922747</ele>
        <time>2016-11-11T14:25:47Z</time>
      </trkpt>
      <trkpt lat="43.60436" lon="2.98339">
        <ele>1042.3333182201</ele>
        <time>2016-11-11T14:26:03Z</time>
      </trkpt>
      <trkpt lat="43.60438" lon="2.98337">
        <ele>1042.3333182201</ele>
        <time>2016-11-11T14:26:03Z</time>
      </trkpt>
      <trkpt lat="43.6046" lon="2.98321">
        <ele>1043.7764346464</ele>
        <time>2016-11-11T14:26:37Z</time>
      </trkpt>
      <trkpt lat="43.60464" lon="2.98318">
        <ele>1043.7764346464</ele>
        <time>2016-11-11T14:26:37Z</time>
      </trkpt>
      <trkpt lat="43.60481" lon="2.98301">
        <ele>1045.3198097158</ele>
        <time>2016-11-11T14:26:57Z</time>
      </trkpt>
      <trkpt lat="43.60492" lon="2.98296">
        <ele>1046.7921677014</ele>
        <time>2016-11-11T14:27:15Z</time>
      </trkpt>
      <trkpt lat="43.60497" lon="2.98291">
        <ele>1046.7921677014</ele>
        <time>2016-11-11T14:27:15Z</time>
      </trkpt>
      <trkpt lat="43.60535" lon="2.98225">
        <ele>1048.3954190318</ele>
        <time>2016-11-11T14:28:16Z</time>
      </trkpt>
      <trkpt lat="43.60552" lon="2.98216">
        <ele>1049.8696631857</ele>
        <time>2016-11-11T14:28:43Z</time>
      </trkpt>
      <trkpt lat="43.6056" lon="2.98215">
        <ele>1049.8696631857</ele>
        <time>2016-11-11T14:28:43Z</time>
      </trkpt>
      <trkpt lat="43.60576" lon="2.98214">
        <ele>1051.104291553</ele>
        <time>2016-11-11T14:29:18Z</time>
      </trkpt>
      <trkpt lat="43.60583" lon="2.98214">
        <ele>1051.104291553</ele>
        <time>2016-11-11T14:29:25Z</time>
      </trkpt>
      <trkpt lat="43.60595" lon="2.98215">
        <ele>1052.1561562636</ele>
        <time>2016-11-11T14:29:48Z</time>
      </trkpt>
      <trkpt lat="43.60607" lon="2.98223">
        <ele>1052.8480100693</ele>
        <time>2016-11-11T14:30:08Z</time>
      </trkpt>
      <trkpt lat="43.60619" lon="2.98224">
        <ele>1053.3626438058</ele>
        <time>2016-11-11T14:30:22Z</time>
      </trkpt>
      <trkpt lat="43.60631" lon="2.98214">
        <ele>1053.6971216649</ele>
        <time>2016-11-11T14:30:51Z</time>
      </trkpt>
      <trkpt lat="43.60633" lon="2.98206">
        <ele>1053.6971216649</ele>
        <time>2016-11-11T14:30:51Z</time>
      </trkpt>
      <trkpt lat="43.60634" lon="2.98205">
        <ele>1053.6971216649</ele>
        <time>2016-11-11T14:30:52Z</time>
      </trkpt>
      <trkpt lat="43.60638" lon="2.98195">
        <ele>1053.8061271873</ele>
        <time>2016-11-11T14:31:03Z</time>
      </trkpt>
      <trkpt lat="43.60639" lon="2.9819">
        <ele>1053.8061271873</ele>
        <time>2016-11-11T14:31:03Z</time>
      </trkpt>
      <trkpt lat="43.60647" lon="2.98169">
        <ele>1053.7781296635</ele>
        <time>2016-11-11T14:31:22Z</time>
      </trkpt>
      <trkpt lat="43.60649" lon="2.98163">
        <ele>1053.7781296635</ele>
        <time>2016-11-11T14:31:27Z</time>
      </trkpt>
      <trkpt lat="43.60655" lon="2.98145">
        <ele>1053.5658992613</ele>
        <time>2016-11-11T14:31:40Z</time>
      </trkpt>
      <trkpt lat="43.60663" lon="2.98127">
        <ele>1053.284820444</ele>
        <time>2016-11-11T14:32:00Z</time>
      </trkpt>
      <trkpt lat="43.60669" lon="2.98107">
        <ele>1052.7682784051</ele>
        <time>2016-11-11T14:32:28Z</time>
      </trkpt>
      <trkpt lat="43.6067" lon="2.98103">
        <ele>1052.7682784051</ele>
        <time>2016-11-11T14:32:33Z</time>
      </trkpt>
      <trkpt lat="43.60697" lon="2.9804">
        <ele>1051.8049966519</ele>
        <time>2016-11-11T14:33:23Z</time>
      </trkpt>
      <trkpt lat="43.60698" lon="2.98039">
        <ele>1051.8049966519</ele>
        <time>2016-11-11T14:33:25Z</time>
      </trkpt>
      <trkpt lat="43.60703" lon="2.98028">
        <ele>1050.8202201008</ele>
        <time>2016-11-11T14:33:42Z</time>
      </trkpt>
      <trkpt lat="43.60711" lon="2.98">
        <ele>1049.7325049432</ele>
        <time>2016-11-11T14:33:55Z</time>
      </trkpt>
      <trkpt lat="43.60722" lon="2.97951">
        <ele>1048.2217309723</ele>
        <time>2016-11-11T14:34:34Z</time>
      </trkpt>
      <trkpt lat="43.60722" lon="2.97929">
        <ele>1046.5833617254</ele>
        <time>2016-11-11T14:34:51Z</time>
      </trkpt>
      <trkpt lat="43.6072" lon="2.97903">
        <ele>1044.8321232559</ele>
        <time>2016-11-11T14:35:10Z</time>
      </trkpt>
      <trkpt lat="43.60711" lon="2.9788">
        <ele>1042.9963804569</ele>
        <time>2016-11-11T14:35:27Z</time>
      </trkpt>
      <trkpt lat="43.60699" lon="2.9785">
        <ele>1041.0161612186</ele>
        <time>2016-11-11T14:35:55Z</time>
      </trkpt>
      <trkpt lat="43.60705" lon="2.97825">
        <ele>1039.0668424948</ele>
        <time>2016-11-11T14:36:51Z</time>
      </trkpt>
      <trkpt lat="43.60709" lon="2.97837">
        <ele>1037.2819547235</ele>
        <time>2016-11-11T14:37:20Z</time>
      </trkpt>
      <trkpt lat="43.6071" lon="2.97838">
        <ele>1037.2819547235</ele>
        <time>2016-11-11T14:37:25Z</time>
      </trkpt>
      <trkpt lat="43.60766" lon="2.97921">
        <ele>1034.9920774763</ele>
        <time>2016-11-11T14:39:21Z</time>
      </trkpt>
      <trkpt lat="43.60777" lon="2.97937">
        <ele>1032.7311887764</ele>
        <time>2016-11-11T14:39:36Z</time>
      </trkpt>
      <trkpt lat="43.60784" lon="2.97948">
        <ele>1030.5471193241</ele>
        <time>2016-11-11T14:39:45Z</time>
      </trkpt>
      <trkpt lat="43.60787" lon="2.97966">
        <ele>1028.4550407279</ele>
        <time>2016-11-11T14:40:05Z</time>
      </trkpt>
      <trkpt lat="43.60788" lon="2.97971">
        <ele>1028.4550407279</ele>
        <time>2016-11-11T14:40:05Z</time>
      </trkpt>
      <trkpt lat="43.60787" lon="2.9799">
        <ele>1026.353344168</ele>
        <time>2016-11-11T14:40:29Z</time>
      </trkpt>
      <trkpt lat="43.60787" lon="2.98">
        <ele>1026.353344168</ele>
        <time>2016-11-11T14:40:29Z</time>
      </trkpt>
      <trkpt lat="43.60789" lon="2.98014">
        <ele>1024.1910166303</ele>
        <time>2016-11-11T14:40:40Z</time>
      </trkpt>
      <trkpt lat="43.60793" lon="2.98033">
        <ele>1022.050525614</ele>
        <time>2016-11-11T14:41:00Z</time>
      </trkpt>
      <trkpt lat="43.60794" lon="2.98037">
        <ele>1022.050525614</ele>
        <time>2016-11-11T14:41:04Z</time>
      </trkpt>
      <trkpt lat="43.60795" lon="2.98042">
        <ele>1022.050525614</ele>
        <time>2016-11-11T14:41:04Z</time>
      </trkpt>
      <trkpt lat="43.60798" lon="2.98065">
        <ele>1019.6477966592</ele>
        <time>2016-11-11T14:41:23Z</time>
      </trkpt>
      <trkpt lat="43.60797" lon="2.98067">
        <ele>1019.6477966592</ele>
        <time>2016-11-11T14:41:25Z</time>
      </trkpt>
      <trkpt lat="43.60799" lon="2.98087">
        <ele>1017.210184882</ele>
        <time>2016-11-11T14:41:55Z</time>
      </trkpt>
      <trkpt lat="43.60795" lon="2.9813">
        <ele>1014.732116225</ele>
        <time>2016-11-11T14:42:36Z</time>
      </trkpt>
      <trkpt lat="43.60795" lon="2.98133">
        <ele>1014.732116225</ele>
        <time>2016-11-11T14:42:36Z</time>
      </trkpt>
      <trkpt lat="43.60801" lon="2.98175">
        <ele>1012.136318375</ele>
        <time>2016-11-11T14:43:16Z</time>
      </trkpt>
      <trkpt lat="43.60797" lon="2.98198">
        <ele>1009.6107538752</ele>
        <time>2016-11-11T14:43:27Z</time>
      </trkpt>
      <trkpt lat="43.608" lon="2.98204">
        <ele>1009.6107538752</ele>
        <time>2016-11-11T14:43:32Z</time>
      </trkpt>
      <trkpt lat="43.60816" lon="2.98248">
        <ele>1006.6374688164</ele>
        <time>2016-11-11T14:44:10Z</time>
      </trkpt>
      <trkpt lat="43.6083" lon="2.98284">
        <ele>1003.414951678</ele>
        <time>2016-11-11T14:44:43Z</time>
      </trkpt>
      <trkpt lat="43.60831" lon="2.98289">
        <ele>1003.414951678</ele>
        <time>2016-11-11T14:44:48Z</time>
      </trkpt>
      <trkpt lat="43.60836" lon="2.98303">
        <ele>1000.3293737592</ele>
        <time>2016-11-11T14:45:02Z</time>
      </trkpt>
      <trkpt lat="43.60845" lon="2.98319">
        <ele>997.26238981837</ele>
        <time>2016-11-11T14:45:16Z</time>
      </trkpt>
      <trkpt lat="43.60847" lon="2.98325">
        <ele>997.26238981837</ele>
        <time>2016-11-11T14:45:21Z</time>
      </trkpt>
      <trkpt lat="43.60849" lon="2.98329">
        <ele>997.26238981837</ele>
        <time>2016-11-11T14:45:25Z</time>
      </trkpt>
      <trkpt lat="43.60853" lon="2.98335">
        <ele>994.2482034798</ele>
        <time>2016-11-11T14:45:33Z</time>
      </trkpt>
      <trkpt lat="43.60853" lon="2.98337">
        <ele>994.2482034798</ele>
        <time>2016-11-11T14:45:35Z</time>
      </trkpt>
      <trkpt lat="43.60856" lon="2.98343">
        <ele>994.2482034798</ele>
        <time>2016-11-11T14:45:40Z</time>
      </trkpt>
      <trkpt lat="43.60858" lon="2.98351">
        <ele>991.31814914043</ele>
        <time>2016-11-11T14:45:57Z</time>
      </trkpt>
      <trkpt lat="43.60862" lon="2.98356">
        <ele>991.31814914043</ele>
        <time>2016-11-11T14:45:57Z</time>
      </trkpt>
      <trkpt lat="43.60863" lon="2.98362">
        <ele>988.45757822969</ele>
        <time>2016-11-11T14:46:08Z</time>
      </trkpt>
      <trkpt lat="43.60863" lon="2.98362">
        <ele>988.45757822969</ele>
        <time>2016-11-11T14:46:16Z</time>
      </trkpt>
      <trkpt lat="43.60867" lon="2.98371">
        <ele>988.45757822969</ele>
        <time>2016-11-11T14:46:33Z</time>
      </trkpt>
      <trkpt lat="43.60871" lon="2.98378">
        <ele>985.83985450039</ele>
        <time>2016-11-11T14:46:53Z</time>
      </trkpt>
      <trkpt lat="43.60877" lon="2.98382">
        <ele>985.83985450039</ele>
        <time>2016-11-11T14:48:07Z</time>
      </trkpt>
      <trkpt lat="43.60894" lon="2.98446">
        <ele>982.01066464737</ele>
        <time>2016-11-11T14:51:14Z</time>
      </trkpt>
      <trkpt lat="43.60899" lon="2.98452">
        <ele>982.01066464737</ele>
        <time>2016-11-11T14:51:15Z</time>
      </trkpt>
      <trkpt lat="43.60908" lon="2.9848">
        <ele>978.33499931581</ele>
        <time>2016-11-11T14:51:50Z</time>
      </trkpt>
      <trkpt lat="43.60923" lon="2.98493">
        <ele>974.95286009017</ele>
        <time>2016-11-11T14:52:26Z</time>
      </trkpt>
      <trkpt lat="43.60926" lon="2.98497">
        <ele>974.95286009017</ele>
        <time>2016-11-11T14:52:26Z</time>
      </trkpt>
      <trkpt lat="43.60932" lon="2.98505">
        <ele>971.79116268479</ele>
        <time>2016-11-11T14:52:42Z</time>
      </trkpt>
      <trkpt lat="43.60934" lon="2.98508">
        <ele>971.79116268479</ele>
        <time>2016-11-11T14:52:42Z</time>
      </trkpt>
      <trkpt lat="43.60947" lon="2.98526">
        <ele>968.82458236821</ele>
        <time>2016-11-11T14:53:04Z</time>
      </trkpt>
      <trkpt lat="43.60956" lon="2.98537">
        <ele>966.0577064237</ele>
        <time>2016-11-11T14:53:15Z</time>
      </trkpt>
      <trkpt lat="43.60965" lon="2.98572">
        <ele>962.70139232245</ele>
        <time>2016-11-11T14:54:16Z</time>
      </trkpt>
      <trkpt lat="43.60964" lon="2.98562">
        <ele>962.70139232245</ele>
        <time>2016-11-11T14:54:16Z</time>
      </trkpt>
      <trkpt lat="43.60959" lon="2.9853">
        <ele>959.49583683866</ele>
        <time>2016-11-11T14:54:42Z</time>
      </trkpt>
      <trkpt lat="43.60966" lon="2.98504">
        <ele>956.39125771361</ele>
        <time>2016-11-11T14:55:08Z</time>
      </trkpt>
      <trkpt lat="43.60964" lon="2.98486">
        <ele>953.42750188476</ele>
        <time>2016-11-11T14:55:20Z</time>
      </trkpt>
      <trkpt lat="43.60964" lon="2.98479">
        <ele>953.42750188476</ele>
        <time>2016-11-11T14:55:27Z</time>
      </trkpt>
      <trkpt lat="43.6096" lon="2.98356">
        <ele>949.47358452167</ele>
        <time>2016-11-11T14:57:12Z</time>
      </trkpt>
      <trkpt lat="43.60963" lon="2.98333">
        <ele>945.71789617766</ele>
        <time>2016-11-11T14:57:22Z</time>
      </trkpt>
      <trkpt lat="43.60963" lon="2.98327">
        <ele>945.71789617766</ele>
        <time>2016-11-11T14:57:25Z</time>
      </trkpt>
      <trkpt lat="43.60966" lon="2.98313">
        <ele>942.19434510366</ele>
        <time>2016-11-11T14:57:42Z</time>
      </trkpt>
      <trkpt lat="43.60967" lon="2.98306">
        <ele>942.19434510366</ele>
        <time>2016-11-11T14:57:42Z</time>
      </trkpt>
      <trkpt lat="43.60967" lon="2.98291">
        <ele>938.9767274198</ele>
        <time>2016-11-11T14:58:01Z</time>
      </trkpt>
      <trkpt lat="43.60974" lon="2.98264">
        <ele>935.84413656389</ele>
        <time>2016-11-11T14:58:22Z</time>
      </trkpt>
      <trkpt lat="43.60976" lon="2.98258">
        <ele>935.84413656389</ele>
        <time>2016-11-11T14:58:22Z</time>
      </trkpt>
      <trkpt lat="43.60985" lon="2.98207">
        <ele>932.46175773441</ele>
        <time>2016-11-11T14:59:17Z</time>
      </trkpt>
      <trkpt lat="43.60992" lon="2.98186">
        <ele>929.31249148917</ele>
        <time>2016-11-11T14:59:27Z</time>
      </trkpt>
      <trkpt lat="43.60998" lon="2.9816">
        <ele>926.29530236933</ele>
        <time>2016-11-11T14:59:52Z</time>
      </trkpt>
      <trkpt lat="43.61035" lon="2.98062">
        <ele>922.81163688662</ele>
        <time>2016-11-11T15:01:16Z</time>
      </trkpt>
      <trkpt lat="43.6104" lon="2.98042">
        <ele>919.61945672652</ele>
        <time>2016-11-11T15:01:24Z</time>
      </trkpt>
      <trkpt lat="43.61041" lon="2.9804">
        <ele>919.61945672652</ele>
        <time>2016-11-11T15:01:25Z</time>
      </trkpt>
      <trkpt lat="43.61041" lon="2.98021">
        <ele>916.87243644476</ele>
        <time>2016-11-11T15:01:40Z</time>
      </trkpt>
      <trkpt lat="43.61046" lon="2.97993">
        <ele>914.43774199084</ele>
        <time>2016-11-11T15:02:07Z</time>
      </trkpt>
      <trkpt lat="43.61048" lon="2.9798">
        <ele>912.33538206211</ele>
        <time>2016-11-11T15:02:07Z</time>
      </trkpt>
      <trkpt lat="43.61047" lon="2.97971">
        <ele>912.33538206211</ele>
        <time>2016-11-11T15:02:24Z</time>
      </trkpt>
      <trkpt lat="43.61052" lon="2.97937">
        <ele>910.25136909139</ele>
        <time>2016-11-11T15:02:40Z</time>
      </trkpt>
      <trkpt lat="43.61061" lon="2.97887">
        <ele>908.16841531354</ele>
        <time>2016-11-11T15:03:19Z</time>
      </trkpt>
      <trkpt lat="43.61066" lon="2.97877">
        <ele>908.16841531354</ele>
        <time>2016-11-11T15:03:27Z</time>
      </trkpt>
      <trkpt lat="43.61071" lon="2.97758">
        <ele>905.11925294458</ele>
        <time>2016-11-11T15:05:17Z</time>
      </trkpt>
      <trkpt lat="43.61072" lon="2.97742">
        <ele>902.31430039617</ele>
        <time>2016-11-11T15:05:22Z</time>
      </trkpt>
      <trkpt lat="43.61072" lon="2.97738">
        <ele>902.31430039617</ele>
        <time>2016-11-11T15:05:25Z</time>
      </trkpt>
      <trkpt lat="43.61075" lon="2.97722">
        <ele>899.75021430702</ele>
        <time>2016-11-11T15:05:42Z</time>
      </trkpt>
      <trkpt lat="43.61079" lon="2.97667">
        <ele>897.32225843286</ele>
        <time>2016-11-11T15:06:19Z</time>
      </trkpt>
      <trkpt lat="43.61076" lon="2.97641">
        <ele>895.24997622678</ele>
        <time>2016-11-11T15:06:40Z</time>
      </trkpt>
      <trkpt lat="43.61081" lon="2.97615">
        <ele>893.28897387192</ele>
        <time>2016-11-11T15:06:58Z</time>
      </trkpt>
      <trkpt lat="43.61081" lon="2.97611">
        <ele>893.28897387192</ele>
        <time>2016-11-11T15:07:00Z</time>
      </trkpt>
      <trkpt lat="43.61083" lon="2.97592">
        <ele>891.6447755592</ele>
        <time>2016-11-11T15:07:18Z</time>
      </trkpt>
      <trkpt lat="43.61084" lon="2.97587">
        <ele>891.6447755592</ele>
        <time>2016-11-11T15:07:18Z</time>
      </trkpt>
      <trkpt lat="43.61086" lon="2.97581">
        <ele>891.6447755592</ele>
        <time>2016-11-11T15:07:23Z</time>
      </trkpt>
      <trkpt lat="43.61083" lon="2.9755">
        <ele>889.8007295405</ele>
        <time>2016-11-11T15:07:56Z</time>
      </trkpt>
      <trkpt lat="43.6108" lon="2.97547">
        <ele>889.8007295405</ele>
        <time>2016-11-11T15:08:13Z</time>
      </trkpt>
      <trkpt lat="43.61076" lon="2.97546">
        <ele>889.8007295405</ele>
        <time>2016-11-11T15:09:33Z</time>
      </trkpt>
      <trkpt lat="43.61076" lon="2.97546">
        <ele>889.8007295405</ele>
        <time>2016-11-11T15:09:35Z</time>
      </trkpt>
      <trkpt lat="43.61079" lon="2.9753">
        <ele>887.52365293747</ele>
        <time>2016-11-11T15:09:47Z</time>
      </trkpt>
      <trkpt lat="43.6108" lon="2.97524">
        <ele>887.52365293747</ele>
        <time>2016-11-11T15:09:50Z</time>
      </trkpt>
      <trkpt lat="43.61063" lon="2.97475">
        <ele>885.47776213937</ele>
        <time>2016-11-11T15:10:18Z</time>
      </trkpt>
      <trkpt lat="43.61046" lon="2.97347">
        <ele>883.98959686762</ele>
        <time>2016-11-11T15:11:14Z</time>
      </trkpt>
      <trkpt lat="43.61057" lon="2.97339">
        <ele>882.74046400273</ele>
        <time>2016-11-11T15:11:22Z</time>
      </trkpt>
      <trkpt lat="43.61051" lon="2.9734">
        <ele>882.74046400273</ele>
        <time>2016-11-11T15:11:56Z</time>
      </trkpt>
      <trkpt lat="43.61059" lon="2.97339">
        <ele>881.83793052867</ele>
        <time>2016-11-11T15:12:04Z</time>
      </trkpt>
      <trkpt lat="43.61078" lon="2.97334">
        <ele>880.97719921005</ele>
        <time>2016-11-11T15:13:25Z</time>
      </trkpt>
      <trkpt lat="43.61061" lon="2.97327">
        <ele>880.26488109344</ele>
        <time>2016-11-11T15:13:43Z</time>
      </trkpt>
      <trkpt lat="43.61063" lon="2.97325">
        <ele>880.26488109344</ele>
        <time>2016-11-11T15:13:47Z</time>
      </trkpt>
      <trkpt lat="43.61065" lon="2.97325">
        <ele>880.26488109344</ele>
        <time>2016-11-11T15:13:57Z</time>
      </trkpt>
      <trkpt lat="43.61053" lon="2.9733">
        <ele>879.77056674973</ele>
        <time>2016-11-11T15:14:12Z</time>
      </trkpt>
      <trkpt lat="43.61053" lon="2.97327">
        <ele>879.77056674973</ele>
        <time>2016-11-11T15:14:37Z</time>
      </trkpt>
      <trkpt lat="43.61059" lon="2.97332">
        <ele>879.44289855064</ele>
        <time>2016-11-11T15:14:37Z</time>
      </trkpt>
      <trkpt lat="43.61072" lon="2.97323">
        <ele>879.30595877905</ele>
        <time>2016-11-11T15:15:07Z</time>
      </trkpt>
      <trkpt lat="43.61091" lon="2.9731">
        <ele>879.22309713587</ele>
        <time>2016-11-11T15:16:18Z</time>
      </trkpt>
      <trkpt lat="43.61066" lon="2.97333">
        <ele>879.12530252015</ele>
        <time>2016-11-11T15:17:22Z</time>
      </trkpt>
      <trkpt lat="43.61075" lon="2.97333">
        <ele>879.12530252015</ele>
        <time>2016-11-11T15:17:22Z</time>
      </trkpt>
      <trkpt lat="43.61068" lon="2.97324">
        <ele>879.19378633534</ele>
        <time>2016-11-11T15:17:33Z</time>
      </trkpt>
      <trkpt lat="43.61075" lon="2.9732">
        <ele>879.19378633534</ele>
        <time>2016-11-11T15:17:35Z</time>
      </trkpt>
      <trkpt lat="43.61079" lon="2.97318">
        <ele>879.40877275158</ele>
        <time>2016-11-11T15:17:40Z</time>
      </trkpt>
      <trkpt lat="43.61083" lon="2.97324">
        <ele>879.40877275158</ele>
        <time>2016-11-11T15:20:00Z</time>
      </trkpt>
      <trkpt lat="43.61079" lon="2.97325">
        <ele>879.54991981049</ele>
        <time>2016-11-11T15:20:40Z</time>
      </trkpt>
      <trkpt lat="43.61071" lon="2.97329">
        <ele>879.54991981049</ele>
        <time>2016-11-11T15:21:20Z</time>
      </trkpt>
      <trkpt lat="43.61067" lon="2.9733">
        <ele>879.26932621835</ele>
        <time>2016-11-11T15:22:28Z</time>
      </trkpt>
      <trkpt lat="43.61073" lon="2.97328">
        <ele>879.26932621835</ele>
        <time>2016-11-11T15:23:10Z</time>
      </trkpt>
      <trkpt lat="43.61073" lon="2.97327">
        <ele>879.26932621835</ele>
        <time>2016-11-11T15:23:27Z</time>
      </trkpt>
      <trkpt lat="43.61077" lon="2.97326">
        <ele>878.67833110662</ele>
        <time>2016-11-11T15:24:01Z</time>
      </trkpt>
      <trkpt lat="43.6107" lon="2.97328">
        <ele>878.67833110662</ele>
        <time>2016-11-11T15:25:25Z</time>
      </trkpt>
      <trkpt lat="43.61066" lon="2.97335">
        <ele>879.26460820078</ele>
        <time>2016-11-11T15:28:40Z</time>
      </trkpt>
      <trkpt lat="43.61065" lon="2.97337">
        <ele>879.26460820078</ele>
        <time>2016-11-11T15:29:03Z</time>
      </trkpt>
      <trkpt lat="43.61058" lon="2.97331">
        <ele>880.02559375747</ele>
        <time>2016-11-11T15:29:25Z</time>
      </trkpt>
      <trkpt lat="43.61056" lon="2.97332">
        <ele>880.02559375747</ele>
        <time>2016-11-11T15:29:42Z</time>
      </trkpt>
      <trkpt lat="43.61055" lon="2.97335">
        <ele>880.02559375747</ele>
        <time>2016-11-11T15:29:55Z</time>
      </trkpt>
      <trkpt lat="43.61065" lon="2.97333">
        <ele>880.81027283776</ele>
        <time>2016-11-11T15:30:00Z</time>
      </trkpt>
      <trkpt lat="43.61059" lon="2.97328">
        <ele>880.81027283776</ele>
        <time>2016-11-11T15:30:41Z</time>
      </trkpt>
      <trkpt lat="43.6106" lon="2.9733">
        <ele>880.81027283776</ele>
        <time>2016-11-11T15:31:06Z</time>
      </trkpt>
      <trkpt lat="43.61058" lon="2.9733">
        <ele>881.62296858843</ele>
        <time>2016-11-11T15:31:22Z</time>
      </trkpt>
      <trkpt lat="43.61059" lon="2.97329">
        <ele>881.62296858843</ele>
        <time>2016-11-11T15:31:31Z</time>
      </trkpt>
      <trkpt lat="43.61061" lon="2.97327">
        <ele>881.62296858843</ele>
        <time>2016-11-11T15:31:31Z</time>
      </trkpt>
      <trkpt lat="43.61062" lon="2.97328">
        <ele>881.62296858843</ele>
        <time>2016-11-11T15:32:07Z</time>
      </trkpt>
      <trkpt lat="43.61059" lon="2.97334">
        <ele>882.43899546184</ele>
        <time>2016-11-11T15:33:09Z</time>
      </trkpt>
      <trkpt lat="43.61062" lon="2.97334">
        <ele>882.43899546184</ele>
        <time>2016-11-11T15:33:23Z</time>
      </trkpt>
      <trkpt lat="43.61057" lon="2.97332">
        <ele>883.29333495152</ele>
        <time>2016-11-11T15:33:56Z</time>
      </trkpt>
      <trkpt lat="43.61055" lon="2.97331">
        <ele>883.29333495152</ele>
        <time>2016-11-11T15:33:56Z</time>
      </trkpt>
      <trkpt lat="43.6106" lon="2.97334">
        <ele>883.29333495152</ele>
        <time>2016-11-11T15:34:33Z</time>
      </trkpt>
      <trkpt lat="43.61061" lon="2.97335">
        <ele>883.29333495152</ele>
        <time>2016-11-11T15:35:00Z</time>
      </trkpt>
      <trkpt lat="43.61063" lon="2.97333">
        <ele>884.31939563744</ele>
        <time>2016-11-11T15:35:49Z</time>
      </trkpt>
      <trkpt lat="43.61064" lon="2.97332">
        <ele>884.31939563744</ele>
        <time>2016-11-11T15:35:49Z</time>
      </trkpt>
      <trkpt lat="43.61062" lon="2.97335">
        <ele>884.31939563744</ele>
        <time>2016-11-11T15:36:05Z</time>
      </trkpt>
      <trkpt lat="43.61061" lon="2.97333">
        <ele>884.31939563744</ele>
        <time>2016-11-11T15:36:42Z</time>
      </trkpt>
      <trkpt lat="43.61058" lon="2.97333">
        <ele>884.31939563744</ele>
        <time>2016-11-11T15:37:15Z</time>
      </trkpt>
      <trkpt lat="43.61072" lon="2.97305">
        <ele>884.64616945642</ele>
        <time>2016-11-11T15:37:33Z</time>
      </trkpt>
      <trkpt lat="43.61073" lon="2.97304">
        <ele>884.64616945642</ele>
        <time>2016-11-11T15:37:35Z</time>
      </trkpt>
      <trkpt lat="43.6107" lon="2.97316">
        <ele>885.28463141615</ele>
        <time>2016-11-11T15:37:50Z</time>
      </trkpt>
      <trkpt lat="43.61016" lon="2.9741">
        <ele>885.83062241135</ele>
        <time>2016-11-11T15:38:17Z</time>
      </trkpt>
      <trkpt lat="43.61044" lon="2.9746">
        <ele>886.45779558394</ele>
        <time>2016-11-11T15:38:17Z</time>
      </trkpt>
      <trkpt lat="43.6108" lon="2.97544">
        <ele>887.13971670178</ele>
        <time>2016-11-11T15:39:00Z</time>
      </trkpt>
      <trkpt lat="43.61077" lon="2.97531">
        <ele>887.54934716498</ele>
        <time>2016-11-11T15:39:22Z</time>
      </trkpt>
      <trkpt lat="43.61076" lon="2.97523">
        <ele>887.54934716498</ele>
        <time>2016-11-11T15:39:25Z</time>
      </trkpt>
      <trkpt lat="43.61061" lon="2.97468">
        <ele>887.6873086699</ele>
        <time>2016-11-11T15:40:01Z</time>
      </trkpt>
      <trkpt lat="43.6105" lon="2.97455">
        <ele>887.75693061795</ele>
        <time>2016-11-11T15:40:18Z</time>
      </trkpt>
      <trkpt lat="43.61045" lon="2.97448">
        <ele>887.75693061795</ele>
        <time>2016-11-11T15:40:18Z</time>
      </trkpt>
      <trkpt lat="43.61036" lon="2.97411">
        <ele>887.67321693328</ele>
        <time>2016-11-11T15:40:47Z</time>
      </trkpt>
      <trkpt lat="43.61035" lon="2.97386">
        <ele>887.51659138673</ele>
        <time>2016-11-11T15:41:04Z</time>
      </trkpt>
      <trkpt lat="43.61048" lon="2.97359">
        <ele>887.33316786686</ele>
        <time>2016-11-11T15:41:23Z</time>
      </trkpt>
      <trkpt lat="43.61049" lon="2.97357">
        <ele>887.33316786686</ele>
        <time>2016-11-11T15:41:25Z</time>
      </trkpt>
      <trkpt lat="43.61053" lon="2.97353">
        <ele>887.33316786686</ele>
        <time>2016-11-11T15:41:30Z</time>
      </trkpt>
      <trkpt lat="43.61067" lon="2.97332">
        <ele>887.67034503588</ele>
        <time>2016-11-11T15:41:56Z</time>
      </trkpt>
      <trkpt lat="43.61067" lon="2.97332">
        <ele>887.67034503588</ele>
        <time>2016-11-11T15:42:08Z</time>
      </trkpt>
      <trkpt lat="43.61071" lon="2.97336">
        <ele>887.67034503588</ele>
        <time>2016-11-11T15:42:46Z</time>
      </trkpt>
      <trkpt lat="43.61079" lon="2.97337">
        <ele>889.23580788123</ele>
        <time>2016-11-11T15:47:19Z</time>
      </trkpt>
      <trkpt lat="43.6107" lon="2.97334">
        <ele>889.39627229632</ele>
        <time>2016-11-11T15:49:09Z</time>
      </trkpt>
      <trkpt lat="43.61089" lon="2.9736">
        <ele>889.54938552964</ele>
        <time>2016-11-11T15:49:20Z</time>
      </trkpt>
      <trkpt lat="43.61047" lon="2.97334">
        <ele>889.00159920785</ele>
        <time>2016-11-11T15:53:08Z</time>
      </trkpt>
      <trkpt lat="43.61059" lon="2.9733">
        <ele>888.75532741435</ele>
        <time>2016-11-11T15:53:18Z</time>
      </trkpt>
      <trkpt lat="43.61068" lon="2.97328">
        <ele>888.94606235531</ele>
        <time>2016-11-11T15:55:42Z</time>
      </trkpt>
      <trkpt lat="43.6108" lon="2.97338">
        <ele>889.10742424607</ele>
        <time>2016-11-11T15:56:08Z</time>
      </trkpt>
      <trkpt lat="43.61099" lon="2.97353">
        <ele>889.18221896802</ele>
        <time>2016-11-11T15:56:08Z</time>
      </trkpt>
      <trkpt lat="43.61089" lon="2.97361">
        <ele>889.17548791145</ele>
        <time>2016-11-11T15:56:42Z</time>
      </trkpt>
      <trkpt lat="43.61076" lon="2.97355">
        <ele>889.12109260949</ele>
        <time>2016-11-11T15:56:42Z</time>
      </trkpt>
      <trkpt lat="43.61069" lon="2.97346">
        <ele>889.03626170969</ele>
        <time>2016-11-11T15:56:56Z</time>
      </trkpt>
      <trkpt lat="43.61068" lon="2.97338">
        <ele>889.03626170969</ele>
        <time>2016-11-11T15:56:56Z</time>
      </trkpt>
      <trkpt lat="43.61064" lon="2.97326">
        <ele>888.90834547628</ele>
        <time>2016-11-11T15:57:25Z</time>
      </trkpt>
    </trkseg>
  </trk>
</gpx>